Festina Lente — WDG6466 — position and weather

sailwx.info

Track history (hours):
 
Tides and Currents Weather Stations Pressure Air Temp Water Temp Dewpoint Dewpoint Depression Visibility Wind Speed Wind Dir Waves Ship Positions

Festina Lente

Owner: PK Ocean Charters, LLC, Sunnyvale, CA. More information available from US FCC via Universal Licensing System and Coast Guard Vessel Documentation Center.

Last reported at 2017-Oct-18 05:23 UTC. Time now 2017-Oct-20 05:23 UTC.
Position N 37°31' W 122°12'.

Length 14 m.

Type: Sailing vessel. MMSI: 367557310.

Date/timePositionNaut miles runAvg speedWind from/ knotsBaromVisibWave heightAir tempDewpointWater temp
2017-Oct-18 05:23N 37°31' W 122°12'0 0.0
2017-Oct-18 04:53N 37°31' W 122°12'0 0.0
2017-Oct-18 03:32N 37°31' W 122°12'0 0.0
2017-Oct-18 03:14N 37°31' W 122°12'0 0.0
2017-Oct-18 02:59N 37°31' W 122°12'0 0.0
2017-Oct-18 02:20N 37°31' W 122°12'0 0.0
2017-Oct-18 01:56N 37°31' W 122°12'0 0.0
2017-Oct-18 01:29N 37°31' W 122°12'0 0.0
2017-Oct-18 00:56N 37°31' W 122°12'0 0.0
2017-Oct-17 19:05N 37°31' W 122°12'0 0.0
2017-Oct-17 18:05N 37°31' W 122°12'0 0.0
2017-Oct-17 17:59N 37°31' W 122°12'0 0.0
2017-Oct-17 15:50N 37°31' W 122°12'0 0.0
2017-Oct-17 15:29N 37°31' W 122°12'0 0.0
2017-Oct-16 19:30N 37°31' W 122°12'0 0.0
2017-Oct-16 18:42N 37°31' W 122°12'0 0.0
2017-Oct-16 17:03N 37°31' W 122°12'0 0.0
2017-Oct-16 17:00N 37°31' W 122°12'0 0.0
2017-Oct-16 16:30N 37°31' W 122°12'0 0.0
2017-Oct-16 16:00N 37°31' W 122°12'0 0.0
2017-Oct-16 15:00N 37°31' W 122°12'0 0.0
2017-Oct-16 11:57N 37°31' W 122°12'0 0.0
2017-Oct-16 11:21N 37°31' W 122°12'0 0.0
2017-Oct-16 11:00N 37°31' W 122°12'1 0.0
2017-Oct-15 02:25N 37°31' W 122°12'4 6.6
2017-Oct-15 01:52N 37°35' W 122°14'3 8.3
2017-Oct-15 01:30N 37°37' W 122°17'4 8.0
2017-Oct-15 01:00N 37°40' W 122°20'4 8.4
2017-Oct-15 00:30N 37°44' W 122°22'4 8.1
2017-Oct-15 00:00N 37°48' W 122°24'0 0.2
2017-Oct-14 23:30N 37°48' W 122°24'0 0.0
2017-Oct-14 23:00N 37°48' W 122°24'3 6.0
2017-Oct-14 22:30N 37°49' W 122°27'3 6.0
2017-Oct-14 22:00N 37°48' W 122°31'3 5.0
2017-Oct-14 21:30N 37°47' W 122°34'2 3.8
2017-Oct-14 20:59N 37°47' W 122°36'3 4.4
2017-Oct-14 20:24N 37°46' W 122°39'2 4.2
2017-Oct-14 19:58N 37°45' W 122°41'2 5.1
2017-Oct-14 19:30N 37°46' W 122°39'3 5.4
2017-Oct-14 19:00N 37°47' W 122°36'3 5.6
2017-Oct-14 18:30N 37°49' W 122°33'3 6.0
2017-Oct-14 18:00N 37°49' W 122°29'2 4.8
2017-Oct-14 17:30N 37°51' W 122°27'1 0.1
2017-Oct-14 06:45N 37°52' W 122°26'1 3.9
2017-Oct-14 06:30N 37°52' W 122°25'4 7.1
2017-Oct-14 06:00N 37°49' W 122°23'4 8.6
2017-Oct-14 05:31N 37°45' W 122°22'4 7.7
2017-Oct-14 05:01N 37°41' W 122°20'4 7.0
2017-Oct-14 04:30N 37°38' W 122°18'3 6.2
2017-Oct-14 04:00N 37°35' W 122°15'3 5.7
2017-Oct-14 03:28N 37°33' W 122°12'  
2017-Oct-10 14:42N 37°31' W 122°12'0 0.0
2017-Oct-08 23:05N 37°31' W 122°12'0 1.6
2017-Oct-08 23:00N 37°31' W 122°12'1 1.5
2017-Oct-08 22:30N 37°31' W 122°13'2 4.9
2017-Oct-08 22:00N 37°33' W 122°12'2 4.6
2017-Oct-08 21:28N 37°34' W 122°14'2 3.5
2017-Oct-08 21:00N 37°36' W 122°16'1 1.8
2017-Oct-08 20:30N 37°37' W 122°15'1 2.8
2017-Oct-08 20:00N 37°35' W 122°15'1 1.3
2017-Oct-08 19:30N 37°35' W 122°14'2 3.2
2017-Oct-08 19:00N 37°35' W 122°12'1 2.7
2017-Oct-08 18:30N 37°34' W 122°13'2 2.0
2017-Oct-08 17:39N 37°32' W 122°12'1 3.6
2017-Oct-08 17:30N 37°32' W 122°12'  
Track history (hours):
 
Tides and Currents Weather Stations Pressure Air Temp Water Temp Dewpoint Dewpoint Depression Visibility Wind Speed Wind Dir Waves Ship Positions

Festina Lente

Owner: PK Ocean Charters, LLC, Sunnyvale, CA. More information available from US FCC via Universal Licensing System and Coast Guard Vessel Documentation Center.

Last reported at 2017-Oct-18 05:23 UTC. Time now 2017-Oct-20 05:23 UTC.
Position N 37°31' W 122°12'.

Length 14 m.

Type: Sailing vessel. MMSI: 367557310.

Date/timePositionNaut miles runAvg speedWind from/ knotsBaromVisibWave heightAir tempDewpointWater temp
2017-Oct-18 05:23N 37°31' W 122°12'0 0.0
2017-Oct-18 04:53N 37°31' W 122°12'0 0.0
2017-Oct-18 03:32N 37°31' W 122°12'0 0.0
2017-Oct-18 03:14N 37°31' W 122°12'0 0.0
2017-Oct-18 02:59N 37°31' W 122°12'0 0.0
2017-Oct-18 02:20N 37°31' W 122°12'0 0.0
2017-Oct-18 01:56N 37°31' W 122°12'0 0.0
2017-Oct-18 01:29N 37°31' W 122°12'0 0.0
2017-Oct-18 00:56N 37°31' W 122°12'0 0.0
2017-Oct-17 19:05N 37°31' W 122°12'0 0.0
2017-Oct-17 18:05N 37°31' W 122°12'0 0.0
2017-Oct-17 17:59N 37°31' W 122°12'0 0.0
2017-Oct-17 15:50N 37°31' W 122°12'0 0.0
2017-Oct-17 15:29N 37°31' W 122°12'0 0.0
2017-Oct-16 19:30N 37°31' W 122°12'0 0.0
2017-Oct-16 18:42N 37°31' W 122°12'0 0.0
2017-Oct-16 17:03N 37°31' W 122°12'0 0.0
2017-Oct-16 17:00N 37°31' W 122°12'0 0.0
2017-Oct-16 16:30N 37°31' W 122°12'0 0.0
2017-Oct-16 16:00N 37°31' W 122°12'0 0.0
2017-Oct-16 15:00N 37°31' W 122°12'0 0.0
2017-Oct-16 11:57N 37°31' W 122°12'0 0.0
2017-Oct-16 11:21N 37°31' W 122°12'0 0.0
2017-Oct-16 11:00N 37°31' W 122°12'1 0.0
2017-Oct-15 02:25N 37°31' W 122°12'4 6.6
2017-Oct-15 01:52N 37°35' W 122°14'3 8.3
2017-Oct-15 01:30N 37°37' W 122°17'4 8.0
2017-Oct-15 01:00N 37°40' W 122°20'4 8.4
2017-Oct-15 00:30N 37°44' W 122°22'4 8.1
2017-Oct-15 00:00N 37°48' W 122°24'0 0.2
2017-Oct-14 23:30N 37°48' W 122°24'0 0.0
2017-Oct-14 23:00N 37°48' W 122°24'3 6.0
2017-Oct-14 22:30N 37°49' W 122°27'3 6.0
2017-Oct-14 22:00N 37°48' W 122°31'3 5.0
2017-Oct-14 21:30N 37°47' W 122°34'2 3.8
2017-Oct-14 20:59N 37°47' W 122°36'3 4.4
2017-Oct-14 20:24N 37°46' W 122°39'2 4.2
2017-Oct-14 19:58N 37°45' W 122°41'2 5.1
2017-Oct-14 19:30N 37°46' W 122°39'3 5.4
2017-Oct-14 19:00N 37°47' W 122°36'3 5.6
2017-Oct-14 18:30N 37°49' W 122°33'3 6.0
2017-Oct-14 18:00N 37°49' W 122°29'2 4.8
2017-Oct-14 17:30N 37°51' W 122°27'1 0.1
2017-Oct-14 06:45N 37°52' W 122°26'1 3.9
2017-Oct-14 06:30N 37°52' W 122°25'4 7.1
2017-Oct-14 06:00N 37°49' W 122°23'4 8.6
2017-Oct-14 05:31N 37°45' W 122°22'4 7.7
2017-Oct-14 05:01N 37°41' W 122°20'4 7.0
2017-Oct-14 04:30N 37°38' W 122°18'3 6.2
2017-Oct-14 04:00N 37°35' W 122°15'3 5.7
2017-Oct-14 03:28N 37°33' W 122°12'  
2017-Oct-10 14:42N 37°31' W 122°12'0 0.0
2017-Oct-08 23:05N 37°31' W 122°12'0 1.6
2017-Oct-08 23:00N 37°31' W 122°12'1 1.5
2017-Oct-08 22:30N 37°31' W 122°13'2 4.9
2017-Oct-08 22:00N 37°33' W 122°12'2 4.6
2017-Oct-08 21:28N 37°34' W 122°14'2 3.5
2017-Oct-08 21:00N 37°36' W 122°16'1 1.8
2017-Oct-08 20:30N 37°37' W 122°15'1 2.8
2017-Oct-08 20:00N 37°35' W 122°15'1 1.3
2017-Oct-08 19:30N 37°35' W 122°14'2 3.2
2017-Oct-08 19:00N 37°35' W 122°12'1 2.7
2017-Oct-08 18:30N 37°34' W 122°13'2 2.0
2017-Oct-08 17:39N 37°32' W 122°12'1 3.6
2017-Oct-08 17:30N 37°32' W 122°12'  

Dump ship's entire track history